sensor_id;sensor_type;location;lat;lon;timestamp;temperature;humidity
11540;DHT22;5826;54.756;9.192;2024-03-07T00:00:42;5.80;99.90
11540;DHT22;5826;54.756;9.192;2024-03-07T00:03:08;5.80;99.90
11540;DHT22;5826;54.756;9.192;2024-03-07T00:05:33;5.80;99.90
11540;DHT22;5826;54.756;9.192;2024-03-07T00:07:59;5.80;99.90
11540;DHT22;5826;54.756;9.192;2024-03-07T00:10:24;5.80;99.90
11540;DHT22;5826;54.756;9.192;2024-03-07T00:12:50;5.70;99.90
11540;DHT22;5826;54.756;9.192;2024-03-07T00:15:16;5.70;99.90
11540;DHT22;5826;54.756;9.192;2024-03-07T00:17:41;5.70;99.90
11540;DHT22;5826;54.756;9.192;2024-03-07T00:20:08;5.70;99.90
11540;DHT22;5826;54.756;9.192;2024-03-07T00:22:37;5.70;99.90
11540;DHT22;5826;54.756;9.192;2024-03-07T00:25:03;5.70;99.90
11540;DHT22;5826;54.756;9.192;2024-03-07T00:27:31;5.70;99.90
11540;DHT22;5826;54.756;9.192;2024-03-07T00:29:56;5.70;99.90
11540;DHT22;5826;54.756;9.192;2024-03-07T00:32:23;5.70;99.90
11540;DHT22;5826;54.756;9.192;2024-03-07T00:34:49;5.70;99.90
11540;DHT22;5826;54.756;9.192;2024-03-07T00:37:18;5.70;99.90
11540;DHT22;5826;54.756;9.192;2024-03-07T00:39:43;5.70;99.90
11540;DHT22;5826;54.756;9.192;2024-03-07T00:42:09;5.70;99.90
11540;DHT22;5826;54.756;9.192;2024-03-07T00:44:35;5.70;99.90
11540;DHT22;5826;54.756;9.192;2024-03-07T00:47:01;5.60;99.90
11540;DHT22;5826;54.756;9.192;2024-03-07T00:49:30;5.60;99.90
11540;DHT22;5826;54.756;9.192;2024-03-07T00:51:57;5.70;99.90
11540;DHT22;5826;54.756;9.192;2024-03-07T00:54:22;5.60;99.90
11540;DHT22;5826;54.756;9.192;2024-03-07T00:56:48;5.70;99.90
11540;DHT22;5826;54.756;9.192;2024-03-07T00:59:15;5.70;99.90
11540;DHT22;5826;54.756;9.192;2024-03-07T01:01:41;5.70;99.90
11540;DHT22;5826;54.756;9.192;2024-03-07T01:04:07;5.60;99.90
11540;DHT22;5826;54.756;9.192;2024-03-07T01:06:33;5.60;99.90
11540;DHT22;5826;54.756;9.192;2024-03-07T01:08:59;5.70;99.90
11540;DHT22;5826;54.756;9.192;2024-03-07T01:11:24;5.70;99.90
11540;DHT22;5826;54.756;9.192;2024-03-07T01:13:50;5.70;99.90
11540;DHT22;5826;54.756;9.192;2024-03-07T01:16:15;5.60;99.90
11540;DHT22;5826;54.756;9.192;2024-03-07T01:18:41;5.60;99.90
11540;DHT22;5826;54.756;9.192;2024-03-07T01:21:06;5.60;99.90
11540;DHT22;5826;54.756;9.192;2024-03-07T01:23:33;5.70;99.90
11540;DHT22;5826;54.756;9.192;2024-03-07T01:25:59;5.70;99.90
11540;DHT22;5826;54.756;9.192;2024-03-07T01:28:26;5.70;99.90
11540;DHT22;5826;54.756;9.192;2024-03-07T01:30:52;5.70;99.90
11540;DHT22;5826;54.756;9.192;2024-03-07T01:33:18;5.70;99.90
11540;DHT22;5826;54.756;9.192;2024-03-07T01:35:44;5.70;99.90
11540;DHT22;5826;54.756;9.192;2024-03-07T01:38:10;5.70;99.90
11540;DHT22;5826;54.756;9.192;2024-03-07T01:40:36;5.60;99.90
11540;DHT22;5826;54.756;9.192;2024-03-07T01:43:02;6.00;99.90
11540;DHT22;5826;54.756;9.192;2024-03-07T01:45:28;5.60;99.90
11540;DHT22;5826;54.756;9.192;2024-03-07T01:47:54;5.60;99.90
11540;DHT22;5826;54.756;9.192;2024-03-07T01:50:21;5.60;99.90
11540;DHT22;5826;54.756;9.192;2024-03-07T01:52:46;5.60;99.90
11540;DHT22;5826;54.756;9.192;2024-03-07T01:55:12;5.60;99.90
11540;DHT22;5826;54.756;9.192;2024-03-07T01:57:39;5.50;99.90
11540;DHT22;5826;54.756;9.192;2024-03-07T02:00:06;5.50;99.90
11540;DHT22;5826;54.756;9.192;2024-03-07T02:02:32;5.50;99.90
11540;DHT22;5826;54.756;9.192;2024-03-07T02:04:59;5.50;99.90
11540;DHT22;5826;54.756;9.192;2024-03-07T02:07:24;5.50;99.90
11540;DHT22;5826;54.756;9.192;2024-03-07T02:09:59;5.60;99.90
11540;DHT22;5826;54.756;9.192;2024-03-07T02:12:24;5.60;99.90
11540;DHT22;5826;54.756;9.192;2024-03-07T02:14:50;5.60;99.90
11540;DHT22;5826;54.756;9.192;2024-03-07T02:17:15;5.60;99.90
11540;DHT22;5826;54.756;9.192;2024-03-07T02:19:41;5.50;99.90
11540;DHT22;5826;54.756;9.192;2024-03-07T02:22:06;5.50;99.90
11540;DHT22;5826;54.756;9.192;2024-03-07T02:24:32;5.50;99.90
11540;DHT22;5826;54.756;9.192;2024-03-07T02:26:57;5.50;99.90
11540;DHT22;5826;54.756;9.192;2024-03-07T02:29:24;5.50;99.90
11540;DHT22;5826;54.756;9.192;2024-03-07T02:31:50;5.50;99.90
11540;DHT22;5826;54.756;9.192;2024-03-07T02:34:17;5.50;99.90
11540;DHT22;5826;54.756;9.192;2024-03-07T02:36:42;5.40;99.90
11540;DHT22;5826;54.756;9.192;2024-03-07T02:39:08;5.50;99.90
11540;DHT22;5826;54.756;9.192;2024-03-07T02:41:35;5.50;99.90
11540;DHT22;5826;54.756;9.192;2024-03-07T02:44:00;5.50;99.90
11540;DHT22;5826;54.756;9.192;2024-03-07T02:46:29;5.50;99.90
11540;DHT22;5826;54.756;9.192;2024-03-07T02:48:54;5.40;99.90
11540;DHT22;5826;54.756;9.192;2024-03-07T02:51:20;5.40;99.90
11540;DHT22;5826;54.756;9.192;2024-03-07T02:53:45;5.40;99.90
11540;DHT22;5826;54.756;9.192;2024-03-07T02:56:11;5.40;99.90
11540;DHT22;5826;54.756;9.192;2024-03-07T02:58:36;5.40;99.90
11540;DHT22;5826;54.756;9.192;2024-03-07T03:01:02;5.40;99.90
11540;DHT22;5826;54.756;9.192;2024-03-07T03:03:31;5.40;99.90
11540;DHT22;5826;54.756;9.192;2024-03-07T03:05:57;5.40;99.90
11540;DHT22;5826;54.756;9.192;2024-03-07T03:08:24;5.40;99.90
11540;DHT22;5826;54.756;9.192;2024-03-07T03:10:49;5.40;99.90
11540;DHT22;5826;54.756;9.192;2024-03-07T03:13:17;5.30;99.90
11540;DHT22;5826;54.756;9.192;2024-03-07T03:15:42;5.30;99.90
11540;DHT22;5826;54.756;9.192;2024-03-07T03:18:08;5.30;99.90
11540;DHT22;5826;54.756;9.192;2024-03-07T03:20:35;5.20;99.90
11540;DHT22;5826;54.756;9.192;2024-03-07T03:23:04;5.20;99.90
11540;DHT22;5826;54.756;9.192;2024-03-07T03:25:31;5.20;99.90
11540;DHT22;5826;54.756;9.192;2024-03-07T03:27:59;5.20;99.90
11540;DHT22;5826;54.756;9.192;2024-03-07T03:30:25;5.10;99.90
11540;DHT22;5826;54.756;9.192;2024-03-07T03:32:51;5.00;99.90
11540;DHT22;5826;54.756;9.192;2024-03-07T03:35:17;5.00;99.90
11540;DHT22;5826;54.756;9.192;2024-03-07T03:37:43;5.00;99.90
11540;DHT22;5826;54.756;9.192;2024-03-07T03:40:10;4.90;99.90
11540;DHT22;5826;54.756;9.192;2024-03-07T03:42:37;4.90;99.90
11540;DHT22;5826;54.756;9.192;2024-03-07T03:45:04;4.80;99.90
11540;DHT22;5826;54.756;9.192;2024-03-07T03:47:36;4.80;99.90
11540;DHT22;5826;54.756;9.192;2024-03-07T03:50:06;4.80;99.90
11540;DHT22;5826;54.756;9.192;2024-03-07T03:52:32;4.80;99.90
11540;DHT22;5826;54.756;9.192;2024-03-07T03:55:00;4.70;99.90
11540;DHT22;5826;54.756;9.192;2024-03-07T03:57:28;4.80;99.90
11540;DHT22;5826;54.756;9.192;2024-03-07T03:59:53;4.70;99.90
11540;DHT22;5826;54.756;9.192;2024-03-07T04:02:20;4.70;99.90
11540;DHT22;5826;54.756;9.192;2024-03-07T04:04:46;4.70;99.90
11540;DHT22;5826;54.756;9.192;2024-03-07T04:07:12;4.60;99.90
11540;DHT22;5826;54.756;9.192;2024-03-07T04:09:38;4.60;99.90
11540;DHT22;5826;54.756;9.192;2024-03-07T04:12:04;4.60;99.90
11540;DHT22;5826;54.756;9.192;2024-03-07T04:14:30;4.60;99.90
11540;DHT22;5826;54.756;9.192;2024-03-07T04:16:58;4.60;99.90
11540;DHT22;5826;54.756;9.192;2024-03-07T04:19:24;4.60;99.90
11540;DHT22;5826;54.756;9.192;2024-03-07T04:21:50;4.60;99.90
11540;DHT22;5826;54.756;9.192;2024-03-07T04:24:17;4.50;99.90
11540;DHT22;5826;54.756;9.192;2024-03-07T04:26:42;4.50;99.90
11540;DHT22;5826;54.756;9.192;2024-03-07T04:29:08;4.50;99.90
11540;DHT22;5826;54.756;9.192;2024-03-07T04:31:34;4.40;99.90
11540;DHT22;5826;54.756;9.192;2024-03-07T04:34:00;4.40;99.90
11540;DHT22;5826;54.756;9.192;2024-03-07T04:36:25;4.40;99.90
11540;DHT22;5826;54.756;9.192;2024-03-07T04:38:51;4.40;99.90
11540;DHT22;5826;54.756;9.192;2024-03-07T04:41:17;4.40;99.90
11540;DHT22;5826;54.756;9.192;2024-03-07T04:43:44;4.40;99.90
11540;DHT22;5826;54.756;9.192;2024-03-07T04:46:09;4.40;99.90
11540;DHT22;5826;54.756;9.192;2024-03-07T04:48:35;4.40;99.90
11540;DHT22;5826;54.756;9.192;2024-03-07T04:51:00;4.40;99.90
11540;DHT22;5826;54.756;9.192;2024-03-07T04:53:26;4.80;99.90
11540;DHT22;5826;54.756;9.192;2024-03-07T04:55:51;4.40;99.90
11540;DHT22;5826;54.756;9.192;2024-03-07T04:58:17;4.40;99.90
11540;DHT22;5826;54.756;9.192;2024-03-07T05:00:42;4.80;99.90
11540;DHT22;5826;54.756;9.192;2024-03-07T05:03:08;4.40;99.90
11540;DHT22;5826;54.756;9.192;2024-03-07T05:05:34;4.40;99.90
11540;DHT22;5826;54.756;9.192;2024-03-07T05:08:00;4.40;99.90
11540;DHT22;5826;54.756;9.192;2024-03-07T05:10:25;4.40;99.90
11540;DHT22;5826;54.756;9.192;2024-03-07T05:12:53;4.40;99.90
11540;DHT22;5826;54.756;9.192;2024-03-07T05:15:19;4.70;99.90
11540;DHT22;5826;54.756;9.192;2024-03-07T05:17:44;4.40;99.90
11540;DHT22;5826;54.756;9.192;2024-03-07T05:20:10;4.30;99.90
11540;DHT22;5826;54.756;9.192;2024-03-07T05:22:36;4.30;99.90
11540;DHT22;5826;54.756;9.192;2024-03-07T05:25:17;4.30;99.90
11540;DHT22;5826;54.756;9.192;2024-03-07T05:27:44;4.30;99.90
11540;DHT22;5826;54.756;9.192;2024-03-07T05:30:11;4.30;99.90
11540;DHT22;5826;54.756;9.192;2024-03-07T05:32:38;4.30;99.90
11540;DHT22;5826;54.756;9.192;2024-03-07T05:35:05;4.20;99.90
11540;DHT22;5826;54.756;9.192;2024-03-07T05:37:31;4.20;99.90
11540;DHT22;5826;54.756;9.192;2024-03-07T05:39:57;4.20;99.90
11540;DHT22;5826;54.756;9.192;2024-03-07T05:42:22;4.20;99.90
11540;DHT22;5826;54.756;9.192;2024-03-07T05:44:50;4.10;99.90
11540;DHT22;5826;54.756;9.192;2024-03-07T05:47:16;4.10;99.90
11540;DHT22;5826;54.756;9.192;2024-03-07T05:49:42;4.30;99.90
11540;DHT22;5826;54.756;9.192;2024-03-07T05:52:08;4.00;99.90
11540;DHT22;5826;54.756;9.192;2024-03-07T05:54:34;4.00;99.90
11540;DHT22;5826;54.756;9.192;2024-03-07T05:57:00;4.00;99.90
11540;DHT22;5826;54.756;9.192;2024-03-07T05:59:26;4.00;99.90
11540;DHT22;5826;54.756;9.192;2024-03-07T06:01:54;4.00;99.90
11540;DHT22;5826;54.756;9.192;2024-03-07T06:04:19;4.00;99.90
11540;DHT22;5826;54.756;9.192;2024-03-07T06:06:45;3.90;99.90
11540;DHT22;5826;54.756;9.192;2024-03-07T06:09:13;3.90;99.90
11540;DHT22;5826;54.756;9.192;2024-03-07T06:11:39;3.90;99.90
11540;DHT22;5826;54.756;9.192;2024-03-07T06:14:08;4.60;99.90
11540;DHT22;5826;54.756;9.192;2024-03-07T06:16:36;3.90;99.90
11540;DHT22;5826;54.756;9.192;2024-03-07T06:19:02;3.90;99.90
11540;DHT22;5826;54.756;9.192;2024-03-07T06:21:29;3.90;99.90
11540;DHT22;5826;54.756;9.192;2024-03-07T06:23:57;3.90;99.90
11540;DHT22;5826;54.756;9.192;2024-03-07T06:26:33;4.00;99.90
11540;DHT22;5826;54.756;9.192;2024-03-07T06:29:18;3.90;99.90
11540;DHT22;5826;54.756;9.192;2024-03-07T06:31:44;3.90;99.90
11540;DHT22;5826;54.756;9.192;2024-03-07T06:34:14;4.00;99.90
11540;DHT22;5826;54.756;9.192;2024-03-07T06:36:39;4.00;99.90
11540;DHT22;5826;54.756;9.192;2024-03-07T06:39:06;4.00;99.90
11540;DHT22;5826;54.756;9.192;2024-03-07T06:41:33;4.00;99.90
11540;DHT22;5826;54.756;9.192;2024-03-07T06:43:58;4.00;99.90
11540;DHT22;5826;54.756;9.192;2024-03-07T06:46:24;4.00;99.90
11540;DHT22;5826;54.756;9.192;2024-03-07T06:48:50;4.00;99.90
11540;DHT22;5826;54.756;9.192;2024-03-07T06:51:16;4.00;99.90
11540;DHT22;5826;54.756;9.192;2024-03-07T06:53:43;4.00;99.90
11540;DHT22;5826;54.756;9.192;2024-03-07T06:56:08;4.10;99.90
11540;DHT22;5826;54.756;9.192;2024-03-07T06:58:34;4.80;99.90
11540;DHT22;5826;54.756;9.192;2024-03-07T07:01:00;4.10;99.90
11540;DHT22;5826;54.756;9.192;2024-03-07T07:03:26;4.10;99.90
11540;DHT22;5826;54.756;9.192;2024-03-07T07:05:54;4.70;99.90
11540;DHT22;5826;54.756;9.192;2024-03-07T07:08:20;4.10;99.90
11540;DHT22;5826;54.756;9.192;2024-03-07T07:10:45;4.20;99.90
11540;DHT22;5826;54.756;9.192;2024-03-07T07:13:11;4.20;99.90
11540;DHT22;5826;54.756;9.192;2024-03-07T07:15:38;4.20;99.90
11540;DHT22;5826;54.756;9.192;2024-03-07T07:18:04;4.30;99.90
11540;DHT22;5826;54.756;9.192;2024-03-07T07:20:31;4.30;99.90
11540;DHT22;5826;54.756;9.192;2024-03-07T07:22:59;4.40;99.90
11540;DHT22;5826;54.756;9.192;2024-03-07T07:25:27;4.40;99.90
11540;DHT22;5826;54.756;9.192;2024-03-07T07:27:53;4.90;99.90
11540;DHT22;5826;54.756;9.192;2024-03-07T07:30:19;4.40;99.90
11540;DHT22;5826;54.756;9.192;2024-03-07T07:32:48;4.40;99.90
11540;DHT22;5826;54.756;9.192;2024-03-07T07:35:13;4.40;99.90
11540;DHT22;5826;54.756;9.192;2024-03-07T07:37:49;4.50;99.90
11540;DHT22;5826;54.756;9.192;2024-03-07T07:40:16;5.10;99.90
11540;DHT22;5826;54.756;9.192;2024-03-07T07:42:47;4.50;99.90
11540;DHT22;5826;54.756;9.192;2024-03-07T07:45:14;4.50;99.90
11540;DHT22;5826;54.756;9.192;2024-03-07T07:47:45;4.40;99.90
11540;DHT22;5826;54.756;9.192;2024-03-07T07:50:15;4.50;99.90
11540;DHT22;5826;54.756;9.192;2024-03-07T07:52:54;4.60;99.90
11540;DHT22;5826;54.756;9.192;2024-03-07T07:55:21;4.60;99.90
11540;DHT22;5826;54.756;9.192;2024-03-07T07:57:48;4.60;99.90
11540;DHT22;5826;54.756;9.192;2024-03-07T08:00:16;4.60;99.90
11540;DHT22;5826;54.756;9.192;2024-03-07T08:03:02;4.60;99.90
11540;DHT22;5826;54.756;9.192;2024-03-07T08:05:36;4.60;99.90
11540;DHT22;5826;54.756;9.192;2024-03-07T08:08:03;4.70;99.90
11540;DHT22;5826;54.756;9.192;2024-03-07T08:10:32;4.70;99.90
11540;DHT22;5826;54.756;9.192;2024-03-07T08:12:58;4.80;99.90
11540;DHT22;5826;54.756;9.192;2024-03-07T08:15:28;4.80;99.90
11540;DHT22;5826;54.756;9.192;2024-03-07T08:17:54;4.80;99.90
11540;DHT22;5826;54.756;9.192;2024-03-07T08:20:21;4.80;99.90
11540;DHT22;5826;54.756;9.192;2024-03-07T08:22:48;4.90;99.90
11540;DHT22;5826;54.756;9.192;2024-03-07T08:25:16;4.90;99.90
11540;DHT22;5826;54.756;9.192;2024-03-07T08:27:44;5.00;99.90
11540;DHT22;5826;54.756;9.192;2024-03-07T08:30:11;5.00;99.90
11540;DHT22;5826;54.756;9.192;2024-03-07T08:32:39;5.00;99.90
11540;DHT22;5826;54.756;9.192;2024-03-07T08:35:05;5.00;99.90
11540;DHT22;5826;54.756;9.192;2024-03-07T08:37:41;5.10;99.90
11540;DHT22;5826;54.756;9.192;2024-03-07T08:40:08;5.10;99.90
11540;DHT22;5826;54.756;9.192;2024-03-07T08:42:37;5.10;99.90
11540;DHT22;5826;54.756;9.192;2024-03-07T08:45:04;5.20;99.90
11540;DHT22;5826;54.756;9.192;2024-03-07T08:47:30;5.30;99.90
11540;DHT22;5826;54.756;9.192;2024-03-07T08:49:56;5.30;99.90
11540;DHT22;5826;54.756;9.192;2024-03-07T08:52:22;5.40;99.90
11540;DHT22;5826;54.756;9.192;2024-03-07T08:54:47;5.40;99.90
11540;DHT22;5826;54.756;9.192;2024-03-07T08:57:13;5.50;99.90
11540;DHT22;5826;54.756;9.192;2024-03-07T08:59:42;5.50;99.90
11540;DHT22;5826;54.756;9.192;2024-03-07T09:02:08;5.60;99.90
11540;DHT22;5826;54.756;9.192;2024-03-07T09:04:33;5.60;99.90
11540;DHT22;5826;54.756;9.192;2024-03-07T09:06:59;5.70;99.90
11540;DHT22;5826;54.756;9.192;2024-03-07T09:09:24;5.70;99.90
11540;DHT22;5826;54.756;9.192;2024-03-07T09:11:50;5.70;99.90
11540;DHT22;5826;54.756;9.192;2024-03-07T09:14:15;5.80;99.90
11540;DHT22;5826;54.756;9.192;2024-03-07T09:16:41;5.80;99.90
11540;DHT22;5826;54.756;9.192;2024-03-07T09:19:07;5.80;99.90
11540;DHT22;5826;54.756;9.192;2024-03-07T09:21:35;5.80;99.90
11540;DHT22;5826;54.756;9.192;2024-03-07T09:24:00;5.80;99.90
11540;DHT22;5826;54.756;9.192;2024-03-07T09:26:26;5.70;99.90
11540;DHT22;5826;54.756;9.192;2024-03-07T09:28:52;5.80;99.90
11540;DHT22;5826;54.756;9.192;2024-03-07T09:31:17;5.70;99.90
11540;DHT22;5826;54.756;9.192;2024-03-07T09:33:43;5.70;99.90
11540;DHT22;5826;54.756;9.192;2024-03-07T09:36:08;5.70;99.90
11540;DHT22;5826;54.756;9.192;2024-03-07T09:38:33;5.70;99.90
11540;DHT22;5826;54.756;9.192;2024-03-07T09:40:59;5.70;99.90
11540;DHT22;5826;54.756;9.192;2024-03-07T09:43:26;5.80;99.90
11540;DHT22;5826;54.756;9.192;2024-03-07T09:45:53;5.90;99.90
11540;DHT22;5826;54.756;9.192;2024-03-07T09:48:19;5.90;99.90
11540;DHT22;5826;54.756;9.192;2024-03-07T09:50:46;6.00;99.90
11540;DHT22;5826;54.756;9.192;2024-03-07T09:53:13;6.10;99.90
11540;DHT22;5826;54.756;9.192;2024-03-07T09:55:40;6.10;99.90
11540;DHT22;5826;54.756;9.192;2024-03-07T09:58:06;6.10;99.90
11540;DHT22;5826;54.756;9.192;2024-03-07T10:00:35;6.20;99.90
11540;DHT22;5826;54.756;9.192;2024-03-07T10:03:08;6.20;99.90
11540;DHT22;5826;54.756;9.192;2024-03-07T10:05:34;6.20;99.90
11540;DHT22;5826;54.756;9.192;2024-03-07T10:08:00;6.20;99.90
11540;DHT22;5826;54.756;9.192;2024-03-07T10:10:26;6.30;99.90
11540;DHT22;5826;54.756;9.192;2024-03-07T10:12:52;6.30;99.90
11540;DHT22;5826;54.756;9.192;2024-03-07T10:15:19;6.40;99.90
11540;DHT22;5826;54.756;9.192;2024-03-07T10:17:44;6.40;99.90
11540;DHT22;5826;54.756;9.192;2024-03-07T10:20:12;6.50;99.90
11540;DHT22;5826;54.756;9.192;2024-03-07T10:22:39;6.50;99.90
11540;DHT22;5826;54.756;9.192;2024-03-07T10:25:06;6.60;99.90
11540;DHT22;5826;54.756;9.192;2024-03-07T10:27:35;6.70;99.90
11540;DHT22;5826;54.756;9.192;2024-03-07T10:30:01;6.70;99.90
11540;DHT22;5826;54.756;9.192;2024-03-07T10:32:26;6.60;99.90
11540;DHT22;5826;54.756;9.192;2024-03-07T10:34:53;6.60;99.90
11540;DHT22;5826;54.756;9.192;2024-03-07T10:37:19;6.60;99.90
11540;DHT22;5826;54.756;9.192;2024-03-07T10:39:46;6.50;99.90
11540;DHT22;5826;54.756;9.192;2024-03-07T10:42:14;6.50;99.90
11540;DHT22;5826;54.756;9.192;2024-03-07T10:44:43;6.50;99.90
11540;DHT22;5826;54.756;9.192;2024-03-07T10:47:15;6.50;99.90
11540;DHT22;5826;54.756;9.192;2024-03-07T10:50:02;6.50;99.90
11540;DHT22;5826;54.756;9.192;2024-03-07T10:52:48;6.60;99.90
11540;DHT22;5826;54.756;9.192;2024-03-07T10:57:51;6.60;99.90
11540;DHT22;5826;54.756;9.192;2024-03-07T11:00:19;6.50;99.90
11540;DHT22;5826;54.756;9.192;2024-03-07T11:02:56;6.50;99.90
11540;DHT22;5826;54.756;9.192;2024-03-07T11:05:25;6.50;99.90
11540;DHT22;5826;54.756;9.192;2024-03-07T11:07:58;6.50;99.90
11540;DHT22;5826;54.756;9.192;2024-03-07T11:10:25;6.50;99.90
11540;DHT22;5826;54.756;9.192;2024-03-07T11:12:51;6.50;99.90
11540;DHT22;5826;54.756;9.192;2024-03-07T11:15:18;6.50;99.90
11540;DHT22;5826;54.756;9.192;2024-03-07T11:17:47;6.50;99.90
11540;DHT22;5826;54.756;9.192;2024-03-07T11:20:19;6.50;99.90
11540;DHT22;5826;54.756;9.192;2024-03-07T11:22:47;6.50;99.90
11540;DHT22;5826;54.756;9.192;2024-03-07T11:25:13;6.50;99.90
11540;DHT22;5826;54.756;9.192;2024-03-07T11:27:39;6.50;99.90
11540;DHT22;5826;54.756;9.192;2024-03-07T11:30:06;6.60;99.90
11540;DHT22;5826;54.756;9.192;2024-03-07T11:32:35;6.50;99.90
11540;DHT22;5826;54.756;9.192;2024-03-07T11:35:04;6.50;99.90
11540;DHT22;5826;54.756;9.192;2024-03-07T11:37:40;6.50;99.90
11540;DHT22;5826;54.756;9.192;2024-03-07T11:40:10;6.50;99.90
11540;DHT22;5826;54.756;9.192;2024-03-07T11:42:44;6.50;99.90
11540;DHT22;5826;54.756;9.192;2024-03-07T11:45:11;6.40;99.90
11540;DHT22;5826;54.756;9.192;2024-03-07T11:47:46;6.50;99.90
11540;DHT22;5826;54.756;9.192;2024-03-07T11:50:11;6.40;99.90
11540;DHT22;5826;54.756;9.192;2024-03-07T11:52:37;6.40;99.90
11540;DHT22;5826;54.756;9.192;2024-03-07T11:55:07;6.40;99.90
11540;DHT22;5826;54.756;9.192;2024-03-07T11:57:33;6.40;99.90
11540;DHT22;5826;54.756;9.192;2024-03-07T12:00:00;6.40;99.90
11540;DHT22;5826;54.756;9.192;2024-03-07T12:02:33;6.40;99.90
11540;DHT22;5826;54.756;9.192;2024-03-07T12:04:59;6.50;99.90
11540;DHT22;5826;54.756;9.192;2024-03-07T12:07:26;6.50;99.90
11540;DHT22;5826;54.756;9.192;2024-03-07T12:09:52;6.50;99.90
11540;DHT22;5826;54.756;9.192;2024-03-07T12:12:21;6.50;99.90
11540;DHT22;5826;54.756;9.192;2024-03-07T12:14:47;6.40;99.90
11540;DHT22;5826;54.756;9.192;2024-03-07T12:17:16;6.40;99.90
11540;DHT22;5826;54.756;9.192;2024-03-07T12:19:43;6.40;99.90
11540;DHT22;5826;54.756;9.192;2024-03-07T12:22:09;6.40;99.90
11540;DHT22;5826;54.756;9.192;2024-03-07T12:24:40;6.40;99.90
11540;DHT22;5826;54.756;9.192;2024-03-07T12:29:39;6.50;99.90
11540;DHT22;5826;54.756;9.192;2024-03-07T12:32:08;6.60;99.90
11540;DHT22;5826;54.756;9.192;2024-03-07T12:34:36;6.60;99.90
11540;DHT22;5826;54.756;9.192;2024-03-07T12:37:09;6.70;99.90
11540;DHT22;5826;54.756;9.192;2024-03-07T12:39:35;6.80;99.90
11540;DHT22;5826;54.756;9.192;2024-03-07T12:42:05;6.80;99.90
11540;DHT22;5826;54.756;9.192;2024-03-07T12:44:40;6.80;99.90
11540;DHT22;5826;54.756;9.192;2024-03-07T12:47:09;6.80;99.90
11540;DHT22;5826;54.756;9.192;2024-03-07T12:49:35;6.80;99.90
11540;DHT22;5826;54.756;9.192;2024-03-07T12:52:01;6.80;99.90
11540;DHT22;5826;54.756;9.192;2024-03-07T12:54:26;6.80;99.90
11540;DHT22;5826;54.756;9.192;2024-03-07T12:56:52;6.80;99.90
11540;DHT22;5826;54.756;9.192;2024-03-07T12:59:18;6.90;99.90
11540;DHT22;5826;54.756;9.192;2024-03-07T13:01:44;6.90;99.90
11540;DHT22;5826;54.756;9.192;2024-03-07T13:04:13;6.90;99.90
11540;DHT22;5826;54.756;9.192;2024-03-07T13:06:39;7.00;99.90
11540;DHT22;5826;54.756;9.192;2024-03-07T13:09:09;7.10;99.90
11540;DHT22;5826;54.756;9.192;2024-03-07T13:11:37;7.10;99.90
11540;DHT22;5826;54.756;9.192;2024-03-07T13:14:06;7.20;99.90
11540;DHT22;5826;54.756;9.192;2024-03-07T13:16:32;7.30;99.90
11540;DHT22;5826;54.756;9.192;2024-03-07T13:18:58;7.50;99.90
11540;DHT22;5826;54.756;9.192;2024-03-07T13:21:23;7.50;99.90
11540;DHT22;5826;54.756;9.192;2024-03-07T13:23:49;7.60;99.90
11540;DHT22;5826;54.756;9.192;2024-03-07T13:26:19;7.50;99.90
11540;DHT22;5826;54.756;9.192;2024-03-07T13:28:49;7.50;99.90
11540;DHT22;5826;54.756;9.192;2024-03-07T13:31:15;7.50;99.90
11540;DHT22;5826;54.756;9.192;2024-03-07T13:33:43;7.40;99.90
11540;DHT22;5826;54.756;9.192;2024-03-07T13:36:09;7.50;99.90
11540;DHT22;5826;54.756;9.192;2024-03-07T13:38:35;7.40;99.90
11540;DHT22;5826;54.756;9.192;2024-03-07T13:41:02;7.40;99.90
11540;DHT22;5826;54.756;9.192;2024-03-07T13:43:30;7.40;99.90
11540;DHT22;5826;54.756;9.192;2024-03-07T13:45:59;7.30;99.90
11540;DHT22;5826;54.756;9.192;2024-03-07T13:48:25;7.40;99.90
11540;DHT22;5826;54.756;9.192;2024-03-07T13:50:50;7.40;99.90
11540;DHT22;5826;54.756;9.192;2024-03-07T13:53:18;7.50;99.90
11540;DHT22;5826;54.756;9.192;2024-03-07T14:03:59;11.90;95.10
11540;DHT22;5826;54.756;9.192;2024-03-07T14:07:03;12.10;94.60
11540;DHT22;5826;54.756;9.192;2024-03-07T14:22:22;14.90;85.10
11540;DHT22;5826;54.756;9.192;2024-03-07T14:28:05;16.20;83.80
11540;DHT22;5826;54.756;9.192;2024-03-07T14:33:16;14.90;90.40
11540;DHT22;5826;54.756;9.192;2024-03-07T14:36:11;13.70;94.50
11540;DHT22;5826;54.756;9.192;2024-03-07T14:38:55;12.40;97.20
11540;DHT22;5826;54.756;9.192;2024-03-07T14:42:01;11.40;99.50
11540;DHT22;5826;54.756;9.192;2024-03-07T14:44:28;10.40;99.90
11540;DHT22;5826;54.756;9.192;2024-03-07T14:46:59;9.80;99.90
11540;DHT22;5826;54.756;9.192;2024-03-07T14:49:26;9.40;99.90
11540;DHT22;5826;54.756;9.192;2024-03-07T14:51:53;9.00;99.90
11540;DHT22;5826;54.756;9.192;2024-03-07T14:54:20;8.70;99.90
11540;DHT22;5826;54.756;9.192;2024-03-07T14:56:47;8.30;99.90
11540;DHT22;5826;54.756;9.192;2024-03-07T14:59:12;8.10;99.90
11540;DHT22;5826;54.756;9.192;2024-03-07T15:01:38;7.90;99.90
11540;DHT22;5826;54.756;9.192;2024-03-07T15:04:04;7.80;99.90
11540;DHT22;5826;54.756;9.192;2024-03-07T15:06:35;7.60;99.90
11540;DHT22;5826;54.756;9.192;2024-03-07T15:09:02;7.50;99.90
11540;DHT22;5826;54.756;9.192;2024-03-07T15:11:35;7.40;99.90
11540;DHT22;5826;54.756;9.192;2024-03-07T15:14:03;7.30;99.90
11540;DHT22;5826;54.756;9.192;2024-03-07T15:16:34;7.30;99.90
11540;DHT22;5826;54.756;9.192;2024-03-07T15:19:00;7.30;99.90
11540;DHT22;5826;54.756;9.192;2024-03-07T15:21:26;7.20;99.90
11540;DHT22;5826;54.756;9.192;2024-03-07T15:23:54;7.20;99.90
11540;DHT22;5826;54.756;9.192;2024-03-07T15:26:20;7.20;99.90
11540;DHT22;5826;54.756;9.192;2024-03-07T15:28:49;7.10;99.90
11540;DHT22;5826;54.756;9.192;2024-03-07T15:31:15;7.10;99.90
11540;DHT22;5826;54.756;9.192;2024-03-07T15:33:40;7.10;99.90
11540;DHT22;5826;54.756;9.192;2024-03-07T15:36:08;7.00;99.90
11540;DHT22;5826;54.756;9.192;2024-03-07T15:38:34;7.00;99.90
11540;DHT22;5826;54.756;9.192;2024-03-07T15:41:03;7.00;99.90
11540;DHT22;5826;54.756;9.192;2024-03-07T15:43:29;7.00;99.90
11540;DHT22;5826;54.756;9.192;2024-03-07T15:45:55;6.90;99.90
11540;DHT22;5826;54.756;9.192;2024-03-07T15:48:24;6.90;99.90
11540;DHT22;5826;54.756;9.192;2024-03-07T15:50:51;6.90;99.90
11540;DHT22;5826;54.756;9.192;2024-03-07T15:53:17;6.90;99.90
11540;DHT22;5826;54.756;9.192;2024-03-07T15:55:43;6.80;99.90
11540;DHT22;5826;54.756;9.192;2024-03-07T15:58:08;6.80;99.90
11540;DHT22;5826;54.756;9.192;2024-03-07T16:00:35;6.80;99.90
11540;DHT22;5826;54.756;9.192;2024-03-07T16:03:03;6.70;99.90
11540;DHT22;5826;54.756;9.192;2024-03-07T16:05:33;6.70;99.90
11540;DHT22;5826;54.756;9.192;2024-03-07T16:08:00;6.70;99.90
11540;DHT22;5826;54.756;9.192;2024-03-07T16:10:28;6.70;99.90
11540;DHT22;5826;54.756;9.192;2024-03-07T16:12:56;6.70;99.90
11540;DHT22;5826;54.756;9.192;2024-03-07T16:15:22;6.70;99.90
11540;DHT22;5826;54.756;9.192;2024-03-07T16:17:51;6.80;99.90
11540;DHT22;5826;54.756;9.192;2024-03-07T16:20:22;6.70;99.90
11540;DHT22;5826;54.756;9.192;2024-03-07T16:22:48;6.70;99.90
11540;DHT22;5826;54.756;9.192;2024-03-07T16:25:14;6.70;99.90
11540;DHT22;5826;54.756;9.192;2024-03-07T16:27:44;6.70;99.90
11540;DHT22;5826;54.756;9.192;2024-03-07T16:32:39;6.60;99.90
11540;DHT22;5826;54.756;9.192;2024-03-07T16:35:05;6.60;99.90
11540;DHT22;5826;54.756;9.192;2024-03-07T16:37:41;6.50;99.90